sensor_id;sensor_type;location;lat;lon;timestamp;P1;durP1;ratioP1;P2;durP2;ratioP2
65469;SDS011;52067;50.710;14.492;2022-07-24T00:01:48;17.38;;;12.60;;
65469;SDS011;52067;50.710;14.492;2022-07-24T00:04:13;17.85;;;12.30;;
65469;SDS011;52067;50.710;14.492;2022-07-24T00:06:39;18.48;;;12.68;;
65469;SDS011;52067;50.710;14.492;2022-07-24T00:09:05;21.55;;;12.60;;
65469;SDS011;52067;50.710;14.492;2022-07-24T00:11:31;18.45;;;11.60;;
65469;SDS011;52067;50.710;14.492;2022-07-24T00:13:56;17.55;;;12.13;;
65469;SDS011;52067;50.710;14.492;2022-07-24T00:16:22;18.55;;;12.38;;
65469;SDS011;52067;50.710;14.492;2022-07-24T00:18:47;19.75;;;11.98;;
65469;SDS011;52067;50.710;14.492;2022-07-24T00:21:13;16.48;;;11.65;;
65469;SDS011;52067;50.710;14.492;2022-07-24T00:23:38;16.90;;;11.52;;
65469;SDS011;52067;50.710;14.492;2022-07-24T00:26:04;20.40;;;13.07;;
65469;SDS011;52067;50.710;14.492;2022-07-24T00:28:29;20.38;;;12.57;;
65469;SDS011;52067;50.710;14.492;2022-07-24T00:30:55;16.25;;;11.70;;
65469;SDS011;52067;50.710;14.492;2022-07-24T00:33:21;18.50;;;11.90;;
65469;SDS011;52067;50.710;14.492;2022-07-24T00:35:46;17.70;;;12.52;;
65469;SDS011;52067;50.710;14.492;2022-07-24T00:38:11;18.90;;;12.10;;
65469;SDS011;52067;50.710;14.492;2022-07-24T00:40:37;15.18;;;10.60;;
65469;SDS011;52067;50.710;14.492;2022-07-24T00:43:02;17.83;;;11.27;;
65469;SDS011;52067;50.710;14.492;2022-07-24T00:45:29;18.92;;;11.02;;
65469;SDS011;52067;50.710;14.492;2022-07-24T00:47:54;16.08;;;11.00;;
65469;SDS011;52067;50.710;14.492;2022-07-24T00:50:20;14.45;;;10.38;;
65469;SDS011;52067;50.710;14.492;2022-07-24T00:52:46;19.95;;;11.40;;
65469;SDS011;52067;50.710;14.492;2022-07-24T00:55:12;16.85;;;11.80;;
65469;SDS011;52067;50.710;14.492;2022-07-24T00:57:38;15.70;;;11.07;;
65469;SDS011;52067;50.710;14.492;2022-07-24T01:00:04;29.05;;;13.48;;
65469;SDS011;52067;50.710;14.492;2022-07-24T01:02:31;17.77;;;10.63;;
65469;SDS011;52067;50.710;14.492;2022-07-24T01:04:56;19.70;;;10.85;;
65469;SDS011;52067;50.710;14.492;2022-07-24T01:07:22;17.55;;;10.48;;
65469;SDS011;52067;50.710;14.492;2022-07-24T01:09:47;18.17;;;11.32;;
65469;SDS011;52067;50.710;14.492;2022-07-24T01:12:13;16.02;;;10.13;;
65469;SDS011;52067;50.710;14.492;2022-07-24T01:14:39;17.27;;;10.77;;
65469;SDS011;52067;50.710;14.492;2022-07-24T01:17:05;17.83;;;11.13;;
65469;SDS011;52067;50.710;14.492;2022-07-24T01:19:30;17.92;;;10.90;;
65469;SDS011;52067;50.710;14.492;2022-07-24T01:21:56;17.02;;;11.27;;
65469;SDS011;52067;50.710;14.492;2022-07-24T01:24:21;16.40;;;10.95;;
65469;SDS011;52067;50.710;14.492;2022-07-24T01:26:47;16.67;;;10.32;;
65469;SDS011;52067;50.710;14.492;2022-07-24T01:29:14;17.15;;;10.68;;
65469;SDS011;52067;50.710;14.492;2022-07-24T01:31:40;15.02;;;10.60;;
65469;SDS011;52067;50.710;14.492;2022-07-24T01:34:06;15.40;;;10.38;;
65469;SDS011;52067;50.710;14.492;2022-07-24T01:36:31;15.23;;;10.15;;
65469;SDS011;52067;50.710;14.492;2022-07-24T01:38:57;15.70;;;11.07;;
65469;SDS011;52067;50.710;14.492;2022-07-24T01:41:23;20.20;;;9.75;;
65469;SDS011;52067;50.710;14.492;2022-07-24T01:43:48;16.05;;;10.63;;
65469;SDS011;52067;50.710;14.492;2022-07-24T01:46:13;15.70;;;10.73;;
65469;SDS011;52067;50.710;14.492;2022-07-24T01:48:40;15.13;;;9.80;;
65469;SDS011;52067;50.710;14.492;2022-07-24T01:51:07;17.40;;;10.50;;
65469;SDS011;52067;50.710;14.492;2022-07-24T01:53:32;15.93;;;10.50;;
65469;SDS011;52067;50.710;14.492;2022-07-24T01:55:57;14.48;;;10.10;;
65469;SDS011;52067;50.710;14.492;2022-07-24T01:58:23;14.80;;;9.30;;
65469;SDS011;52067;50.710;14.492;2022-07-24T02:00:48;15.60;;;9.98;;
65469;SDS011;52067;50.710;14.492;2022-07-24T02:03:14;15.73;;;9.82;;
65469;SDS011;52067;50.710;14.492;2022-07-24T02:05:40;14.65;;;9.60;;
65469;SDS011;52067;50.710;14.492;2022-07-24T02:08:06;16.02;;;8.82;;
65469;SDS011;52067;50.710;14.492;2022-07-24T02:10:31;14.82;;;9.63;;
65469;SDS011;52067;50.710;14.492;2022-07-24T02:12:57;16.02;;;10.00;;
65469;SDS011;52067;50.710;14.492;2022-07-24T02:15:22;17.20;;;10.93;;
65469;SDS011;52067;50.710;14.492;2022-07-24T02:17:49;18.02;;;11.07;;
65469;SDS011;52067;50.710;14.492;2022-07-24T02:20:16;20.08;;;11.55;;
65469;SDS011;52067;50.710;14.492;2022-07-24T02:22:42;18.48;;;10.98;;
65469;SDS011;52067;50.710;14.492;2022-07-24T02:25:08;18.98;;;11.02;;
65469;SDS011;52067;50.710;14.492;2022-07-24T02:27:34;15.45;;;10.70;;
65469;SDS011;52067;50.710;14.492;2022-07-24T02:29:59;15.23;;;9.95;;
65469;SDS011;52067;50.710;14.492;2022-07-24T02:32:24;21.40;;;10.55;;
65469;SDS011;52067;50.710;14.492;2022-07-24T02:34:50;17.58;;;10.48;;
65469;SDS011;52067;50.710;14.492;2022-07-24T02:37:16;18.80;;;11.00;;
65469;SDS011;52067;50.710;14.492;2022-07-24T02:39:41;15.60;;;10.40;;
65469;SDS011;52067;50.710;14.492;2022-07-24T02:42:07;22.48;;;11.35;;
65469;SDS011;52067;50.710;14.492;2022-07-24T02:44:32;22.13;;;11.15;;
65469;SDS011;52067;50.710;14.492;2022-07-24T02:46:57;20.40;;;10.50;;
65469;SDS011;52067;50.710;14.492;2022-07-24T02:49:23;16.67;;;10.52;;
65469;SDS011;52067;50.710;14.492;2022-07-24T02:51:48;23.38;;;10.93;;
65469;SDS011;52067;50.710;14.492;2022-07-24T02:54:14;19.38;;;10.15;;
65469;SDS011;52067;50.710;14.492;2022-07-24T02:56:39;17.38;;;10.70;;
65469;SDS011;52067;50.710;14.492;2022-07-24T02:59:05;15.48;;;10.18;;
65469;SDS011;52067;50.710;14.492;2022-07-24T03:01:31;15.00;;;10.43;;
65469;SDS011;52067;50.710;14.492;2022-07-24T03:03:56;15.18;;;10.23;;
65469;SDS011;52067;50.710;14.492;2022-07-24T03:06:21;16.05;;;9.82;;
65469;SDS011;52067;50.710;14.492;2022-07-24T03:08:47;14.25;;;10.00;;
65469;SDS011;52067;50.710;14.492;2022-07-24T03:11:13;16.17;;;9.60;;
65469;SDS011;52067;50.710;14.492;2022-07-24T03:13:38;17.08;;;10.55;;
65469;SDS011;52067;50.710;14.492;2022-07-24T03:16:03;15.65;;;10.00;;
65469;SDS011;52067;50.710;14.492;2022-07-24T03:18:29;18.98;;;10.18;;
65469;SDS011;52067;50.710;14.492;2022-07-24T03:20:55;17.60;;;10.80;;
65469;SDS011;52067;50.710;14.492;2022-07-24T03:23:20;16.80;;;10.07;;
65469;SDS011;52067;50.710;14.492;2022-07-24T03:25:45;14.60;;;9.52;;
65469;SDS011;52067;50.710;14.492;2022-07-24T03:28:11;17.10;;;10.15;;
65469;SDS011;52067;50.710;14.492;2022-07-24T03:30:37;17.23;;;10.68;;
65469;SDS011;52067;50.710;14.492;2022-07-24T03:33:03;26.02;;;11.48;;
65469;SDS011;52067;50.710;14.492;2022-07-24T03:35:28;16.63;;;9.85;;
65469;SDS011;52067;50.710;14.492;2022-07-24T03:37:54;20.15;;;9.77;;
65469;SDS011;52067;50.710;14.492;2022-07-24T03:40:19;21.23;;;10.43;;
65469;SDS011;52067;50.710;14.492;2022-07-24T03:42:45;19.50;;;10.40;;
65469;SDS011;52067;50.710;14.492;2022-07-24T03:45:10;14.35;;;9.75;;
65469;SDS011;52067;50.710;14.492;2022-07-24T03:47:36;15.23;;;10.05;;
65469;SDS011;52067;50.710;14.492;2022-07-24T03:50:01;15.75;;;9.63;;
65469;SDS011;52067;50.710;14.492;2022-07-24T03:52:27;14.48;;;9.55;;
65469;SDS011;52067;50.710;14.492;2022-07-24T03:54:52;15.55;;;9.23;;
65469;SDS011;52067;50.710;14.492;2022-07-24T03:57:20;16.50;;;9.30;;
65469;SDS011;52067;50.710;14.492;2022-07-24T03:59:47;15.02;;;9.70;;
65469;SDS011;52067;50.710;14.492;2022-07-24T04:02:12;12.65;;;9.45;;
65469;SDS011;52067;50.710;14.492;2022-07-24T04:04:37;20.67;;;10.05;;
65469;SDS011;52067;50.710;14.492;2022-07-24T04:07:03;15.35;;;9.60;;
65469;SDS011;52067;50.710;14.492;2022-07-24T04:09:28;15.77;;;9.55;;
65469;SDS011;52067;50.710;14.492;2022-07-24T04:11:54;13.48;;;9.55;;
65469;SDS011;52067;50.710;14.492;2022-07-24T04:14:19;17.98;;;9.93;;
65469;SDS011;52067;50.710;14.492;2022-07-24T04:16:44;15.65;;;8.98;;
65469;SDS011;52067;50.710;14.492;2022-07-24T04:19:10;12.88;;;9.25;;
65469;SDS011;52067;50.710;14.492;2022-07-24T04:21:35;12.85;;;8.90;;
65469;SDS011;52067;50.710;14.492;2022-07-24T04:24:01;17.17;;;9.82;;
65469;SDS011;52067;50.710;14.492;2022-07-24T04:26:26;12.65;;;9.23;;
65469;SDS011;52067;50.710;14.492;2022-07-24T04:28:52;13.10;;;8.65;;
65469;SDS011;52067;50.710;14.492;2022-07-24T04:31:17;15.60;;;9.82;;
65469;SDS011;52067;50.710;14.492;2022-07-24T04:33:42;15.85;;;10.98;;
65469;SDS011;52067;50.710;14.492;2022-07-24T04:36:08;16.48;;;10.52;;
65469;SDS011;52067;50.710;14.492;2022-07-24T04:38:34;15.98;;;10.35;;
65469;SDS011;52067;50.710;14.492;2022-07-24T04:41:00;17.52;;;11.30;;
65469;SDS011;52067;50.710;14.492;2022-07-24T04:43:25;15.23;;;11.05;;
65469;SDS011;52067;50.710;14.492;2022-07-24T04:45:51;17.10;;;11.25;;
65469;SDS011;52067;50.710;14.492;2022-07-24T04:48:16;16.42;;;11.23;;
65469;SDS011;52067;50.710;14.492;2022-07-24T04:50:42;18.70;;;10.85;;
65469;SDS011;52067;50.710;14.492;2022-07-24T04:53:07;18.02;;;10.88;;
65469;SDS011;52067;50.710;14.492;2022-07-24T04:55:32;16.58;;;11.05;;
65469;SDS011;52067;50.710;14.492;2022-07-24T04:57:58;19.92;;;11.55;;
65469;SDS011;52067;50.710;14.492;2022-07-24T05:00:23;17.90;;;11.63;;
65469;SDS011;52067;50.710;14.492;2022-07-24T05:02:49;17.52;;;10.93;;
65469;SDS011;52067;50.710;14.492;2022-07-24T05:05:14;19.50;;;11.75;;
65469;SDS011;52067;50.710;14.492;2022-07-24T05:07:39;17.15;;;11.90;;
65469;SDS011;52067;50.710;14.492;2022-07-24T05:10:05;19.65;;;11.25;;
65469;SDS011;52067;50.710;14.492;2022-07-24T05:12:31;17.77;;;11.25;;
65469;SDS011;52067;50.710;14.492;2022-07-24T05:14:57;15.85;;;10.93;;
65469;SDS011;52067;50.710;14.492;2022-07-24T05:17:22;17.30;;;12.00;;
65469;SDS011;52067;50.710;14.492;2022-07-24T05:19:47;16.67;;;11.82;;
65469;SDS011;52067;50.710;14.492;2022-07-24T05:22:13;17.48;;;11.27;;
65469;SDS011;52067;50.710;14.492;2022-07-24T05:24:38;15.80;;;11.73;;
65469;SDS011;52067;50.710;14.492;2022-07-24T05:27:03;15.57;;;11.38;;
65469;SDS011;52067;50.710;14.492;2022-07-24T05:29:29;19.27;;;12.35;;
65469;SDS011;52067;50.710;14.492;2022-07-24T05:31:54;18.15;;;11.93;;
65469;SDS011;52067;50.710;14.492;2022-07-24T05:34:23;19.65;;;12.32;;
65469;SDS011;52067;50.710;14.492;2022-07-24T05:36:48;16.58;;;11.93;;
65469;SDS011;52067;50.710;14.492;2022-07-24T05:39:14;23.20;;;12.45;;
65469;SDS011;52067;50.710;14.492;2022-07-24T05:41:40;19.13;;;12.32;;
65469;SDS011;52067;50.710;14.492;2022-07-24T05:44:05;20.20;;;12.85;;
65469;SDS011;52067;50.710;14.492;2022-07-24T05:46:30;18.75;;;13.13;;
65469;SDS011;52067;50.710;14.492;2022-07-24T05:48:56;21.23;;;12.45;;
65469;SDS011;52067;50.710;14.492;2022-07-24T05:51:21;17.98;;;12.85;;
65469;SDS011;52067;50.710;14.492;2022-07-24T05:53:47;20.35;;;13.57;;
65469;SDS011;52067;50.710;14.492;2022-07-24T05:56:12;16.90;;;13.05;;
65469;SDS011;52067;50.710;14.492;2022-07-24T05:58:38;18.40;;;11.65;;
65469;SDS011;52067;50.710;14.492;2022-07-24T06:01:03;14.25;;;10.98;;
65469;SDS011;52067;50.710;14.492;2022-07-24T06:03:28;15.13;;;11.18;;
65469;SDS011;52067;50.710;14.492;2022-07-24T06:05:54;14.75;;;10.70;;
65469;SDS011;52067;50.710;14.492;2022-07-24T06:08:19;16.45;;;11.38;;
65469;SDS011;52067;50.710;14.492;2022-07-24T06:10:45;14.50;;;10.65;;
65469;SDS011;52067;50.710;14.492;2022-07-24T06:13:10;16.48;;;10.85;;
65469;SDS011;52067;50.710;14.492;2022-07-24T06:15:35;13.80;;;9.90;;
65469;SDS011;52067;50.710;14.492;2022-07-24T06:18:01;13.10;;;10.57;;
65469;SDS011;52067;50.710;14.492;2022-07-24T06:20:29;14.52;;;10.38;;
65469;SDS011;52067;50.710;14.492;2022-07-24T06:22:54;15.40;;;11.93;;
65469;SDS011;52067;50.710;14.492;2022-07-24T06:25:20;16.02;;;11.13;;
65469;SDS011;52067;50.710;14.492;2022-07-24T06:27:49;13.10;;;10.32;;
65469;SDS011;52067;50.710;14.492;2022-07-24T06:30:19;15.55;;;9.70;;
65469;SDS011;52067;50.710;14.492;2022-07-24T06:32:46;13.00;;;10.32;;
65469;SDS011;52067;50.710;14.492;2022-07-24T06:35:13;13.18;;;9.68;;
65469;SDS011;52067;50.710;14.492;2022-07-24T06:37:38;11.75;;;9.43;;
65469;SDS011;52067;50.710;14.492;2022-07-24T06:40:04;11.35;;;9.02;;
65469;SDS011;52067;50.710;14.492;2022-07-24T06:42:30;14.88;;;9.90;;
65469;SDS011;52067;50.710;14.492;2022-07-24T06:44:56;12.65;;;9.55;;
65469;SDS011;52067;50.710;14.492;2022-07-24T06:47:21;11.70;;;9.35;;
65469;SDS011;52067;50.710;14.492;2022-07-24T06:49:47;12.98;;;8.98;;
65469;SDS011;52067;50.710;14.492;2022-07-24T06:52:12;13.20;;;8.82;;
65469;SDS011;52067;50.710;14.492;2022-07-24T06:54:38;11.88;;;8.52;;
65469;SDS011;52067;50.710;14.492;2022-07-24T06:57:03;12.15;;;8.25;;
65469;SDS011;52067;50.710;14.492;2022-07-24T06:59:29;8.60;;;7.40;;
65469;SDS011;52067;50.710;14.492;2022-07-24T07:01:54;14.48;;;7.75;;
65469;SDS011;52067;50.710;14.492;2022-07-24T07:04:20;8.77;;;5.30;;
65469;SDS011;52067;50.710;14.492;2022-07-24T07:06:45;6.55;;;4.03;;
65469;SDS011;52067;50.710;14.492;2022-07-24T07:09:11;4.32;;;3.45;;
65469;SDS011;52067;50.710;14.492;2022-07-24T07:11:37;5.95;;;4.72;;
65469;SDS011;52067;50.710;14.492;2022-07-24T07:14:04;6.30;;;4.30;;
65469;SDS011;52067;50.710;14.492;2022-07-24T07:16:30;7.00;;;3.60;;
65469;SDS011;52067;50.710;14.492;2022-07-24T07:18:57;5.25;;;2.65;;
65469;SDS011;52067;50.710;14.492;2022-07-24T07:21:23;4.68;;;3.20;;
65469;SDS011;52067;50.710;14.492;2022-07-24T07:23:48;5.35;;;3.58;;
65469;SDS011;52067;50.710;14.492;2022-07-24T07:26:14;6.10;;;3.00;;
65469;SDS011;52067;50.710;14.492;2022-07-24T07:28:41;5.65;;;3.35;;
65469;SDS011;52067;50.710;14.492;2022-07-24T07:31:07;7.95;;;4.38;;
65469;SDS011;52067;50.710;14.492;2022-07-24T07:33:32;11.13;;;6.97;;
65469;SDS011;52067;50.710;14.492;2022-07-24T07:35:58;10.65;;;8.65;;
65469;SDS011;52067;50.710;14.492;2022-07-24T07:38:23;15.52;;;13.05;;
65469;SDS011;52067;50.710;14.492;2022-07-24T07:40:49;18.23;;;13.75;;
65469;SDS011;52067;50.710;14.492;2022-07-24T07:43:14;17.17;;;15.05;;
65469;SDS011;52067;50.710;14.492;2022-07-24T07:45:40;17.95;;;13.52;;
65469;SDS011;52067;50.710;14.492;2022-07-24T07:48:05;19.23;;;16.52;;
65469;SDS011;52067;50.710;14.492;2022-07-24T07:50:31;22.95;;;19.88;;
65469;SDS011;52067;50.710;14.492;2022-07-24T07:52:56;27.80;;;22.13;;
65469;SDS011;52067;50.710;14.492;2022-07-24T07:55:21;26.75;;;20.92;;
65469;SDS011;52067;50.710;14.492;2022-07-24T07:57:48;35.53;;;28.45;;
65469;SDS011;52067;50.710;14.492;2022-07-24T08:00:14;39.35;;;32.67;;
65469;SDS011;52067;50.710;14.492;2022-07-24T08:02:40;27.58;;;21.02;;
65469;SDS011;52067;50.710;14.492;2022-07-24T08:05:05;32.88;;;23.33;;
65469;SDS011;52067;50.710;14.492;2022-07-24T08:07:31;33.72;;;28.20;;
65469;SDS011;52067;50.710;14.492;2022-07-24T08:09:57;32.80;;;26.63;;
65469;SDS011;52067;50.710;14.492;2022-07-24T08:12:22;21.63;;;17.15;;
65469;SDS011;52067;50.710;14.492;2022-07-24T08:14:51;11.77;;;9.57;;
65469;SDS011;52067;50.710;14.492;2022-07-24T08:17:16;12.07;;;8.10;;
65469;SDS011;52067;50.710;14.492;2022-07-24T08:19:42;9.50;;;6.88;;
65469;SDS011;52067;50.710;14.492;2022-07-24T08:22:07;9.30;;;6.90;;
65469;SDS011;52067;50.710;14.492;2022-07-24T08:24:33;9.18;;;7.13;;
65469;SDS011;52067;50.710;14.492;2022-07-24T08:26:59;9.50;;;6.80;;
65469;SDS011;52067;50.710;14.492;2022-07-24T08:29:24;14.20;;;8.13;;
65469;SDS011;52067;50.710;14.492;2022-07-24T08:31:50;8.00;;;6.30;;
65469;SDS011;52067;50.710;14.492;2022-07-24T08:34:16;14.48;;;7.50;;
65469;SDS011;52067;50.710;14.492;2022-07-24T08:36:41;9.82;;;7.55;;
65469;SDS011;52067;50.710;14.492;2022-07-24T08:39:10;9.82;;;6.70;;
65469;SDS011;52067;50.710;14.492;2022-07-24T08:41:36;10.98;;;6.45;;
65469;SDS011;52067;50.710;14.492;2022-07-24T08:44:02;10.32;;;7.85;;
65469;SDS011;52067;50.710;14.492;2022-07-24T08:46:28;10.07;;;7.47;;
65469;SDS011;52067;50.710;14.492;2022-07-24T08:48:54;9.00;;;6.63;;
65469;SDS011;52067;50.710;14.492;2022-07-24T08:51:19;8.50;;;6.95;;
65469;SDS011;52067;50.710;14.492;2022-07-24T08:53:46;11.30;;;7.80;;
65469;SDS011;52067;50.710;14.492;2022-07-24T08:56:12;9.95;;;7.40;;
65469;SDS011;52067;50.710;14.492;2022-07-24T08:58:38;10.73;;;7.03;;
65469;SDS011;52067;50.710;14.492;2022-07-24T09:01:05;9.68;;;6.88;;
65469;SDS011;52067;50.710;14.492;2022-07-24T09:03:43;12.65;;;7.75;;
65469;SDS011;52067;50.710;14.492;2022-07-24T09:06:10;10.65;;;6.88;;
65469;SDS011;52067;50.710;14.492;2022-07-24T09:08:40;10.43;;;6.93;;
65469;SDS011;52067;50.710;14.492;2022-07-24T09:11:25;9.48;;;7.90;;
65469;SDS011;52067;50.710;14.492;2022-07-24T09:13:53;10.73;;;7.53;;
65469;SDS011;52067;50.710;14.492;2022-07-24T09:16:42;12.55;;;7.78;;
65469;SDS011;52067;50.710;14.492;2022-07-24T09:19:08;10.55;;;8.05;;
65469;SDS011;52067;50.710;14.492;2022-07-24T09:21:35;11.95;;;8.13;;
65469;SDS011;52067;50.710;14.492;2022-07-24T09:24:16;10.40;;;7.80;;
65469;SDS011;52067;50.710;14.492;2022-07-24T09:26:44;12.20;;;8.40;;
65469;SDS011;52067;50.710;14.492;2022-07-24T09:29:14;11.75;;;7.55;;
65469;SDS011;52067;50.710;14.492;2022-07-24T09:31:55;9.57;;;7.35;;
65469;SDS011;52067;50.710;14.492;2022-07-24T09:34:25;10.50;;;6.80;;
65469;SDS011;52067;50.710;14.492;2022-07-24T09:37:01;8.63;;;6.88;;
65469;SDS011;52067;50.710;14.492;2022-07-24T09:39:29;12.47;;;7.60;;
65469;SDS011;52067;50.710;14.492;2022-07-24T09:41:57;10.27;;;7.30;;
65469;SDS011;52067;50.710;14.492;2022-07-24T09:44:24;10.25;;;6.68;;
65469;SDS011;52067;50.710;14.492;2022-07-24T09:46:57;10.63;;;6.25;;
65469;SDS011;52067;50.710;14.492;2022-07-24T09:49:26;8.15;;;6.13;;
65469;SDS011;52067;50.710;14.492;2022-07-24T09:54:30;10.25;;;6.03;;
65469;SDS011;52067;50.710;14.492;2022-07-24T10:04:52;7.07;;;5.57;;
65469;SDS011;52067;50.710;14.492;2022-07-24T10:07:19;11.43;;;5.70;;
65469;SDS011;52067;50.710;14.492;2022-07-24T10:09:47;7.60;;;5.25;;
65469;SDS011;52067;50.710;14.492;2022-07-24T10:12:17;6.40;;;4.53;;
65469;SDS011;52067;50.710;14.492;2022-07-24T10:14:45;4.95;;;4.15;;
65469;SDS011;52067;50.710;14.492;2022-07-24T10:17:12;7.47;;;4.25;;
65469;SDS011;52067;50.710;14.492;2022-07-24T10:19:40;7.95;;;3.95;;
65469;SDS011;52067;50.710;14.492;2022-07-24T10:22:10;6.70;;;4.40;;
65469;SDS011;52067;50.710;14.492;2022-07-24T10:24:46;7.57;;;3.97;;
65469;SDS011;52067;50.710;14.492;2022-07-24T10:30:10;6.40;;;2.78;;
65469;SDS011;52067;50.710;14.492;2022-07-24T10:32:37;4.82;;;3.00;;
65469;SDS011;52067;50.710;14.492;2022-07-24T10:38:05;4.35;;;3.13;;
65469;SDS011;52067;50.710;14.492;2022-07-24T10:40:49;5.03;;;3.17;;
65469;SDS011;52067;50.710;14.492;2022-07-24T10:43:16;5.90;;;4.30;;
65469;SDS011;52067;50.710;14.492;2022-07-24T10:46:09;4.22;;;3.20;;
65469;SDS011;52067;50.710;14.492;2022-07-24T10:48:32;4.97;;;3.03;;
65469;SDS011;52067;50.710;14.492;2022-07-24T10:51:02;3.63;;;2.47;;
65469;SDS011;52067;50.710;14.492;2022-07-24T10:56:17;5.85;;;3.97;;
65469;SDS011;52067;50.710;14.492;2022-07-24T11:04:27;4.82;;;2.95;;
65469;SDS011;52067;50.710;14.492;2022-07-24T11:07:11;3.58;;;2.47;;
65469;SDS011;52067;50.710;14.492;2022-07-24T11:09:53;3.58;;;2.72;;
65469;SDS011;52067;50.710;14.492;2022-07-24T11:12:28;5.45;;;2.80;;
65469;SDS011;52067;50.710;14.492;2022-07-24T11:15:04;5.93;;;3.20;;
65469;SDS011;52067;50.710;14.492;2022-07-24T11:17:49;5.25;;;2.80;;
65469;SDS011;52067;50.710;14.492;2022-07-24T11:20:18;4.43;;;3.00;;
65469;SDS011;52067;50.710;14.492;2022-07-24T11:22:51;4.53;;;3.70;;
65469;SDS011;52067;50.710;14.492;2022-07-24T11:28:32;5.88;;;4.35;;
65469;SDS011;52067;50.710;14.492;2022-07-24T11:30:32;5.28;;;3.72;;
65469;SDS011;52067;50.710;14.492;2022-07-24T11:32:58;5.03;;;3.50;;
65469;SDS011;52067;50.710;14.492;2022-07-24T11:35:34;5.05;;;3.30;;
65469;SDS011;52067;50.710;14.492;2022-07-24T11:38:01;4.53;;;2.90;;
65469;SDS011;52067;50.710;14.492;2022-07-24T11:40:28;4.43;;;3.00;;
65469;SDS011;52067;50.710;14.492;2022-07-24T11:42:55;6.88;;;3.42;;
65469;SDS011;52067;50.710;14.492;2022-07-24T11:45:21;3.83;;;3.00;;
65469;SDS011;52067;50.710;14.492;2022-07-24T11:47:47;4.00;;;2.90;;
65469;SDS011;52067;50.710;14.492;2022-07-24T11:50:12;5.00;;;2.80;;
65469;SDS011;52067;50.710;14.492;2022-07-24T11:52:38;4.93;;;2.60;;
65469;SDS011;52067;50.710;14.492;2022-07-24T11:55:12;3.55;;;2.70;;
65469;SDS011;52067;50.710;14.492;2022-07-24T11:57:40;4.20;;;2.60;;
65469;SDS011;52067;50.710;14.492;2022-07-24T12:00:11;4.47;;;2.58;;
65469;SDS011;52067;50.710;14.492;2022-07-24T12:02:45;4.68;;;2.97;;
65469;SDS011;52067;50.710;14.492;2022-07-24T12:05:12;3.97;;;2.60;;
65469;SDS011;52067;50.710;14.492;2022-07-24T12:07:38;6.82;;;3.67;;
65469;SDS011;52067;50.710;14.492;2022-07-24T12:10:04;5.28;;;4.05;;
65469;SDS011;52067;50.710;14.492;2022-07-24T12:15:03;5.13;;;3.43;;
65469;SDS011;52067;50.710;14.492;2022-07-24T12:17:35;5.22;;;3.47;;
65469;SDS011;52067;50.710;14.492;2022-07-24T12:20:19;6.95;;;3.70;;
65469;SDS011;52067;50.710;14.492;2022-07-24T12:22:45;5.68;;;3.60;;
65469;SDS011;52067;50.710;14.492;2022-07-24T12:25:12;4.32;;;3.45;;
65469;SDS011;52067;50.710;14.492;2022-07-24T12:27:38;4.70;;;3.63;;
65469;SDS011;52067;50.710;14.492;2022-07-24T12:30:16;10.20;;;3.50;;
65469;SDS011;52067;50.710;14.492;2022-07-24T12:32:55;4.55;;;3.42;;
65469;SDS011;52067;50.710;14.492;2022-07-24T12:35:21;4.97;;;3.50;;
65469;SDS011;52067;50.710;14.492;2022-07-24T12:37:47;4.43;;;3.50;;
65469;SDS011;52067;50.710;14.492;2022-07-24T12:40:29;6.93;;;3.50;;
65469;SDS011;52067;50.710;14.492;2022-07-24T12:42:58;5.22;;;3.78;;
65469;SDS011;52067;50.710;14.492;2022-07-24T12:45:28;5.43;;;3.53;;
65469;SDS011;52067;50.710;14.492;2022-07-24T12:50:59;4.45;;;3.60;;
65469;SDS011;52067;50.710;14.492;2022-07-24T12:53:30;4.03;;;3.58;;
65469;SDS011;52067;50.710;14.492;2022-07-24T12:56:11;4.18;;;3.33;;
65469;SDS011;52067;50.710;14.492;2022-07-24T12:58:58;5.45;;;3.75;;
65469;SDS011;52067;50.710;14.492;2022-07-24T13:01:27;4.40;;;3.70;;
65469;SDS011;52067;50.710;14.492;2022-07-24T13:04:09;4.75;;;3.40;;
65469;SDS011;52067;50.710;14.492;2022-07-24T13:09:01;4.70;;;3.67;;
65469;SDS011;52067;50.710;14.492;2022-07-24T13:11:27;5.47;;;3.63;;
65469;SDS011;52067;50.710;14.492;2022-07-24T13:13:52;4.38;;;3.47;;
65469;SDS011;52067;50.710;14.492;2022-07-24T13:16:18;5.00;;;3.45;;
65469;SDS011;52067;50.710;14.492;2022-07-24T13:18:44;5.22;;;3.80;;
65469;SDS011;52067;50.710;14.492;2022-07-24T13:21:09;4.35;;;3.83;;
65469;SDS011;52067;50.710;14.492;2022-07-24T13:23:35;4.80;;;3.90;;
65469;SDS011;52067;50.710;14.492;2022-07-24T13:26:00;5.38;;;3.55;;
65469;SDS011;52067;50.710;14.492;2022-07-24T13:28:26;5.72;;;3.58;;
65469;SDS011;52067;50.710;14.492;2022-07-24T13:30:51;5.13;;;3.53;;
65469;SDS011;52067;50.710;14.492;2022-07-24T13:33:16;5.47;;;3.60;;
65469;SDS011;52067;50.710;14.492;2022-07-24T13:35:42;4.25;;;3.30;;
65469;SDS011;52067;50.710;14.492;2022-07-24T13:38:07;4.93;;;3.47;;
65469;SDS011;52067;50.710;14.492;2022-07-24T13:40:32;4.95;;;3.25;;
65469;SDS011;52067;50.710;14.492;2022-07-24T13:42:58;8.38;;;3.78;;
65469;SDS011;52067;50.710;14.492;2022-07-24T13:45:23;4.55;;;3.47;;
65469;SDS011;52067;50.710;14.492;2022-07-24T13:47:49;5.00;;;3.53;;
65469;SDS011;52067;50.710;14.492;2022-07-24T13:50:14;5.20;;;3.72;;
65469;SDS011;52067;50.710;14.492;2022-07-24T13:52:39;6.38;;;3.60;;
65469;SDS011;52067;50.710;14.492;2022-07-24T13:55:06;4.75;;;3.40;;
65469;SDS011;52067;50.710;14.492;2022-07-24T13:57:31;5.03;;;3.85;;
65469;SDS011;52067;50.710;14.492;2022-07-24T13:59:57;4.22;;;3.47;;
65469;SDS011;52067;50.710;14.492;2022-07-24T14:02:22;4.57;;;3.70;;
65469;SDS011;52067;50.710;14.492;2022-07-24T14:04:47;5.38;;;3.70;;
65469;SDS011;52067;50.710;14.492;2022-07-24T14:07:13;4.40;;;3.35;;
65469;SDS011;52067;50.710;14.492;2022-07-24T14:09:38;5.75;;;3.55;;
65469;SDS011;52067;50.710;14.492;2022-07-24T14:12:04;4.10;;;3.30;;
65469;SDS011;52067;50.710;14.492;2022-07-24T14:14:30;6.82;;;3.22;;
65469;SDS011;52067;50.710;14.492;2022-07-24T14:16:55;3.85;;;3.20;;
65469;SDS011;52067;50.710;14.492;2022-07-24T14:19:21;4.50;;;3.40;;
65469;SDS011;52067;50.710;14.492;2022-07-24T14:21:46;5.25;;;3.50;;
65469;SDS011;52067;50.710;14.492;2022-07-24T14:24:13;5.05;;;3.40;;
65469;SDS011;52067;50.710;14.492;2022-07-24T14:26:39;5.00;;;3.70;;
65469;SDS011;52067;50.710;14.492;2022-07-24T14:29:04;5.70;;;3.83;;
65469;SDS011;52067;50.710;14.492;2022-07-24T14:31:30;4.32;;;3.03;;
65469;SDS011;52067;50.710;14.492;2022-07-24T14:33:55;6.60;;;3.35;;
65469;SDS011;52067;50.710;14.492;2022-07-24T14:36:20;4.28;;;3.75;;
65469;SDS011;52067;50.710;14.492;2022-07-24T14:38:46;5.53;;;3.83;;
65469;SDS011;52067;50.710;14.492;2022-07-24T14:41:11;6.82;;;4.05;;
65469;SDS011;52067;50.710;14.492;2022-07-24T14:43:37;4.40;;;3.63;;
65469;SDS011;52067;50.710;14.492;2022-07-24T14:46:02;4.35;;;3.67;;
65469;SDS011;52067;50.710;14.492;2022-07-24T14:48:28;5.75;;;3.88;;
65469;SDS011;52067;50.710;14.492;2022-07-24T14:50:53;5.65;;;3.10;;
65469;SDS011;52067;50.710;14.492;2022-07-24T14:53:18;5.70;;;2.92;;
65469;SDS011;52067;50.710;14.492;2022-07-24T14:55:44;4.47;;;2.90;;